Terminal Aerodrome Forecast
Issued by NWS

Home | Current Version | Previous Version | Text Only | Print | Product List | Glossary On
Versions: 1 2 3 4 5 6 7 8 9 10 11 12 13 14 15 16 17 18 19 20 21 22 23
000
FTUS43 KGRR 190800 AAA
TAFAZO
TAF AMD
KAZO 190807Z 1908/2006 09007KT P6SM OVC250 WS015/12040KT
     FM191500 10011G17KT P6SM OVC050
     FM191800 11010KT 4SM -RA OVC025
     FM192100 11008G16KT 4SM -RA BR OVC015=

USA.gov is the U.S. government's official web portal to all federal, state and local government web resources and services.